Time;durP1;ratioP1;P1;durP2;ratioP2;P2;SDS_P1;SDS_P2;PMS_P1;PMS_P2;Temp;Humidity;BMP_temperature;BMP_pressure;BME280_temperature;BME280_humidity;BME280_pressure;Samples;Min_cycle;Max_cycle;Signal;HPM_P1;HPM_P2
2023/05/27 00:00:23;;;;;;;2.72;1.30;;;;;;;15.68;70.03;102379.91;5046517;28;20422;-53
2023/05/27 00:02:50;;;;;;;2.42;1.40;;;;;;;15.62;70.19;102372.91;5047915;28;20057;-46
2023/05/27 00:05:17;;;;;;;5.63;1.50;;;;;;;15.61;70.07;102376.84;5051900;28;20067;-45
2023/05/27 00:07:44;;;;;;;6.55;1.70;;;;;;;15.61;70.18;102376.84;5034076;28;20052;-46
2023/05/27 00:10:11;;;;;;;6.38;1.33;;;;;;;15.64;70.13;102370.59;5050390;28;20045;-46
2023/05/27 00:12:37;;;;;;;7.63;1.50;;;;;;;15.61;70.17;102365.69;5051563;28;20041;-47
2023/05/27 00:15:05;;;;;;;4.57;1.45;;;;;;;15.60;70.19;102375.19;5051832;28;20395;-46
2023/05/27 00:17:32;;;;;;;3.30;1.30;;;;;;;15.58;70.45;102367.19;5042506;28;20376;-44
2023/05/27 00:20:06;;;;;;;2.90;1.30;;;;;;;15.58;70.37;102363.56;5047784;28;20486;-45
2023/05/27 00:22:34;;;;;;;2.92;1.60;;;;;;;15.53;70.60;102359.00;5047205;28;20045;-52
2023/05/27 00:25:01;;;;;;;3.08;1.35;;;;;;;15.48;70.62;102367.59;5047658;28;20049;-46
2023/05/27 00:27:28;;;;;;;2.90;1.15;;;;;;;15.50;70.57;102372.81;5045305;28;20041;-46
2023/05/27 00:29:55;;;;;;;5.63;1.30;;;;;;;15.51;70.62;102357.72;5049370;28;20041;-48
2023/05/27 00:32:22;;;;;;;3.40;1.30;;;;;;;15.48;70.55;102363.97;5049930;28;20561;-52
2023/05/27 00:34:49;;;;;;;5.97;3.35;;;;;;;15.47;70.82;102365.13;5045331;28;20603;-45
2023/05/27 00:37:15;;;;;;;3.78;1.42;;;;;;;15.43;70.92;102358.56;5051101;28;20473;-48
2023/05/27 00:39:42;;;;;;;3.08;1.42;;;;;;;15.38;70.81;102361.56;5051100;28;20045;-45
2023/05/27 00:42:10;;;;;;;3.25;1.85;;;;;;;15.37;70.98;102354.31;5051223;28;20045;-45
2023/05/27 00:44:37;;;;;;;3.60;1.50;;;;;;;15.35;71.32;102353.84;5051169;28;20107;-46
2023/05/27 00:47:05;;;;;;;9.48;1.85;;;;;;;15.32;71.30;102351.72;5050823;28;20534;-48
2023/05/27 00:49:32;;;;;;;2.35;1.50;;;;;;;15.24;71.37;102345.88;5048717;28;20402;-45
2023/05/27 00:51:59;;;;;;;2.67;1.65;;;;;;;15.20;71.67;102346.88;5039273;28;20046;-49
2023/05/27 00:54:27;;;;;;;4.90;1.65;;;;;;;15.14;72.02;102337.88;5048609;28;20128;-48
2023/05/27 00:56:55;;;;;;;3.40;1.67;;;;;;;15.16;71.75;102348.72;5050974;28;20518;-45
2023/05/27 00:59:22;;;;;;;6.82;2.30;;;;;;;15.18;71.96;102341.66;5037016;28;20048;-46
2023/05/27 01:01:49;;;;;;;2.70;2.10;;;;;;;15.15;72.15;102335.91;5050483;28;20056;-46
2023/05/27 01:04:17;;;;;;;2.35;1.65;;;;;;;15.09;71.96;102332.50;5032702;28;20041;-47
2023/05/27 01:06:56;;;;;;;4.03;2.00;;;;;;;15.06;72.13;102338.75;5049870;28;20041;-45
2023/05/27 01:09:40;;;;;;;6.50;2.03;;;;;;;15.00;72.35;102331.75;5049196;28;20045;-44
2023/05/27 01:12:34;;;;;;;3.90;2.10;;;;;;;14.99;72.57;102323.69;5049131;28;20045;-46
2023/05/27 01:15:03;;;;;;;6.43;2.38;;;;;;;14.93;72.49;102317.50;5050270;28;20053;-49
2023/05/27 01:17:31;;;;;;;6.35;1.92;;;;;;;14.88;72.64;102314.91;5050277;28;20045;-45
2023/05/27 01:19:59;;;;;;;7.60;2.40;;;;;;;14.85;72.75;102320.34;5049458;28;20128;-45
2023/05/27 01:22:30;;;;;;;5.55;2.13;;;;;;;14.88;72.81;102309.31;5032263;28;20053;-46
2023/05/27 01:24:57;;;;;;;6.20;1.90;;;;;;;14.95;72.61;102315.22;5046729;28;20494;-50
2023/05/27 01:27:27;;;;;;;5.15;2.35;;;;;;;14.89;72.45;102308.19;5040395;28;20056;-50
2023/05/27 01:29:56;;;;;;;7.60;1.98;;;;;;;14.88;72.66;102312.09;5046786;28;20094;-44
2023/05/27 01:32:50;;;;;;;7.68;2.60;;;;;;;14.83;73.20;102311.47;5050112;28;20048;-45
2023/05/27 01:35:26;;;;;;;3.63;2.03;;;;;;;14.76;72.97;102303.66;5049810;28;20048;-46
2023/05/27 01:37:55;;;;;;;9.23;2.38;;;;;;;14.73;73.26;102300.72;5049853;28;20059;-46
2023/05/27 01:40:26;;;;;;;6.30;3.28;;;;;;;14.68;73.29;102309.28;5048327;28;20793;-44
2023/05/27 01:42:56;;;;;;;7.78;2.45;;;;;;;14.64;73.54;102298.78;5043319;28;20048;-46
2023/05/27 01:45:23;;;;;;;7.05;2.92;;;;;;;14.62;73.73;102303.06;5049304;28;20045;-45
2023/05/27 01:47:50;;;;;;;4.68;2.75;;;;;;;14.61;73.60;102298.66;5050178;28;20441;-46
2023/05/27 01:50:17;;;;;;;8.00;2.70;;;;;;;14.56;73.91;102296.84;5048172;28;20126;-46
2023/05/27 01:52:45;;;;;;;6.45;3.30;;;;;;;14.53;74.17;102291.16;5049520;28;20041;-45
2023/05/27 01:55:11;;;;;;;7.10;2.67;;;;;;;14.49;74.14;102306.88;5048583;28;20056;-48
2023/05/27 01:57:38;;;;;;;5.53;2.80;;;;;;;14.49;74.43;102295.75;5049239;28;20044;-46
2023/05/27 02:00:09;;;;;;;6.78;2.67;;;;;;;14.50;74.06;102291.81;5038437;28;20096;-47
2023/05/27 02:02:36;;;;;;;11.13;3.88;;;;;;;14.49;74.08;102292.94;5049007;28;20053;-46
2023/05/27 02:05:03;;;;;;;6.25;3.22;;;;;;;14.45;74.29;102273.31;5049660;28;20045;-45
2023/05/27 02:07:30;;;;;;;6.72;2.97;;;;;;;14.43;74.34;102278.38;5049083;28;20048;-49
2023/05/27 02:09:57;;;;;;;5.03;2.60;;;;;;;14.42;74.37;102281.50;5047908;28;20051;-46
2023/05/27 02:12:23;;;;;;;7.22;2.63;;;;;;;14.35;74.60;102273.66;5047984;28;20041;-48
2023/05/27 02:14:51;;;;;;;6.05;2.45;;;;;;;14.37;74.42;102270.56;5047156;28;20045;-46
2023/05/27 02:17:17;;;;;;;4.82;2.40;;;;;;;14.31;74.44;102267.13;5040445;28;20437;-45
2023/05/27 02:19:45;;;;;;;4.70;2.45;;;;;;;14.27;74.38;102277.25;5048616;28;20055;-48
2023/05/27 02:22:12;;;;;;;6.22;2.50;;;;;;;14.23;74.62;102269.91;5048800;28;20049;-45
2023/05/27 02:24:40;;;;;;;7.97;2.90;;;;;;;14.23;74.53;102267.13;5046992;28;20144;-45
2023/05/27 02:27:07;;;;;;;5.78;2.63;;;;;;;14.22;74.75;102262.69;5048647;28;20498;-52
2023/05/27 02:29:34;;;;;;;7.43;2.38;;;;;;;14.20;74.76;102270.56;5043300;28;20493;-45
2023/05/27 02:32:01;;;;;;;3.92;2.25;;;;;;;14.16;74.70;102253.72;5042354;28;20399;-50
2023/05/27 02:34:27;;;;;;;7.45;2.33;;;;;;;14.13;74.93;102256.34;5041404;28;20131;-44
2023/05/27 02:36:55;;;;;;;8.13;2.30;;;;;;;14.13;74.99;102257.19;5047909;28;20517;-45
2023/05/27 02:39:21;;;;;;;7.63;2.65;;;;;;;14.10;75.04;102246.69;5045942;28;20453;-45
2023/05/27 02:41:48;;;;;;;8.77;2.22;;;;;;;14.09;75.14;102231.13;5044009;28;20041;-46
2023/05/27 02:44:15;;;;;;;8.25;3.35;;;;;;;14.07;75.00;102249.31;5044976;28;20048;-45
2023/05/27 02:46:42;;;;;;;5.65;2.20;;;;;;;14.06;75.27;102253.28;5026477;28;20051;-45
2023/05/27 02:49:08;;;;;;;5.60;1.77;;;;;;;14.04;75.03;102234.91;5044666;28;20517;-45
2023/05/27 02:51:36;;;;;;;8.02;2.97;;;;;;;14.02;75.18;102226.09;5044527;28;20517;-49
2023/05/27 02:54:02;;;;;;;9.23;3.35;;;;;;;13.98;75.32;102225.09;5046281;28;20045;-47
2023/05/27 02:56:29;;;;;;;3.95;2.25;;;;;;;13.97;75.11;102217.91;5046746;28;20088;-45
2023/05/27 02:58:56;;;;;;;4.07;2.65;;;;;;;13.93;75.38;102222.50;5027117;28;20471;-49
2023/05/27 03:01:23;;;;;;;7.00;2.03;;;;;;;13.93;75.23;102233.63;5074512;22;20054;-44
2023/05/27 03:03:51;;;;;;;6.55;2.25;;;;;;;13.90;75.24;102217.59;5022710;28;20048;-44
2023/05/27 03:06:20;;;;;;;5.45;2.05;;;;;;;13.88;75.35;102230.19;5028225;28;20057;-45
2023/05/27 03:08:46;;;;;;;5.18;2.00;;;;;;;13.84;75.51;102226.47;5026373;28;20041;-50
2023/05/27 03:11:13;;;;;;;5.00;2.30;;;;;;;13.84;75.50;102223.69;5023168;28;20099;-44
2023/05/27 03:13:40;;;;;;;4.85;2.40;;;;;;;13.80;75.39;102211.56;5024877;28;20046;-45
2023/05/27 03:16:07;;;;;;;5.00;2.50;;;;;;;13.76;75.51;102221.72;5025893;28;20088;-44
2023/05/27 03:18:33;;;;;;;2.50;2.03;;;;;;;13.73;75.52;102211.25;5007217;28;20045;-45
2023/05/27 03:21:01;;;;;;;4.72;2.53;;;;;;;13.71;75.69;102214.38;5021548;28;20099;-44
2023/05/27 03:23:28;;;;;;;6.13;2.08;;;;;;;13.68;75.71;102215.03;5027602;28;20133;-44
2023/05/27 03:25:54;;;;;;;4.43;1.73;;;;;;;13.67;75.88;102218.97;5028026;28;20042;-45
2023/05/27 03:28:21;;;;;;;4.70;2.42;;;;;;;13.66;75.60;102206.19;5025096;28;20045;-47
2023/05/27 03:30:48;;;;;;;5.70;1.95;;;;;;;13.63;75.69;102200.47;5024104;28;20072;-44
2023/05/27 03:33:15;;;;;;;2.95;1.70;;;;;;;13.62;75.66;102205.22;5027353;28;20041;-45
2023/05/27 03:35:42;;;;;;;4.82;1.65;;;;;;;13.59;75.49;102194.75;5025088;28;20103;-44
2023/05/27 03:38:08;;;;;;;4.18;2.05;;;;;;;13.56;75.69;102197.34;5021969;28;20049;-44
2023/05/27 03:40:35;;;;;;;2.30;1.30;;;;;;;13.54;75.85;102194.91;5030025;28;20037;-44
2023/05/27 03:43:02;;;;;;;3.95;1.33;;;;;;;13.52;75.72;102194.44;5009858;28;20041;-44
2023/05/27 03:45:30;;;;;;;7.18;3.17;;;;;;;13.50;75.92;102182.81;5018815;28;20041;-45
2023/05/27 03:47:56;;;;;;;5.28;1.70;;;;;;;13.52;75.65;102194.44;5038238;28;20045;-49
2023/05/27 03:50:23;;;;;;;2.97;1.55;;;;;;;13.50;75.54;102180.03;5027047;28;20045;-45
2023/05/27 03:52:50;;;;;;;2.75;1.55;;;;;;;13.49;75.27;102177.56;5028114;28;20045;-45
2023/05/27 03:55:17;;;;;;;5.78;1.50;;;;;;;13.45;75.60;102182.97;5027549;28;20057;-46
2023/05/27 03:57:44;;;;;;;2.53;1.25;;;;;;;13.42;75.63;102173.31;5010609;28;20057;-47
2023/05/27 04:00:12;;;;;;;3.85;1.23;;;;;;;13.36;75.69;102174.66;5027211;28;20057;-45
2023/05/27 04:02:39;;;;;;;2.20;1.02;;;;;;;13.33;75.77;102171.72;5016451;28;20060;-51
2023/05/27 04:05:06;;;;;;;3.55;1.30;;;;;;;13.33;75.94;102171.72;5029401;28;20041;-45
2023/05/27 04:07:33;;;;;;;2.95;1.58;;;;;;;13.29;75.89;102174.31;5031917;28;20061;-45
2023/05/27 04:10:00;;;;;;;6.47;2.03;;;;;;;13.30;75.70;102186.28;5031039;28;20395;-45
2023/05/27 04:12:27;;;;;;;3.45;1.33;;;;;;;13.27;75.75;102175.81;5028604;28;20064;-45
2023/05/27 04:14:56;;;;;;;5.10;1.48;;;;;;;13.27;75.72;102175.81;5031525;28;20049;-45
2023/05/27 04:17:22;;;;;;;3.40;1.40;;;;;;;13.26;75.55;102176.97;5032065;28;20128;-44
2023/05/27 04:19:49;;;;;;;4.75;1.60;;;;;;;13.24;75.53;102177.28;5031799;28;20090;-48
2023/05/27 04:22:16;;;;;;;4.47;1.30;;;;;;;13.26;75.49;102182.53;5030730;28;20064;-47
2023/05/27 04:24:43;;;;;;;3.70;1.35;;;;;;;13.24;75.33;102174.50;5031357;28;20510;-44
2023/05/27 04:27:10;;;;;;;8.75;1.75;;;;;;;13.25;75.56;102178.09;5031342;28;20045;-47
2023/05/27 04:29:38;;;;;;;3.60;1.38;;;;;;;13.25;75.74;102186.44;5030540;28;20095;-47
2023/05/27 04:32:05;;;;;;;3.55;1.60;;;;;;;13.22;75.65;102185.13;5030320;28;20048;-44
2023/05/27 04:34:33;;;;;;;5.70;1.77;;;;;;;13.21;75.73;102183.50;5032524;28;20075;-45
2023/05/27 04:37:00;;;;;;;7.53;1.65;;;;;;;13.21;75.81;102189.06;5031565;28;20136;-47
2023/05/27 04:39:28;;;;;;;3.42;1.30;;;;;;;13.21;75.88;102186.28;5031625;28;20050;-47
2023/05/27 04:41:56;;;;;;;5.03;1.15;;;;;;;13.22;75.85;102181.53;5034149;28;20616;-45
2023/05/27 04:44:26;;;;;;;7.47;2.60;;;;;;;13.20;75.77;102184.66;5030161;28;20033;-45
2023/05/27 04:46:54;;;;;;;3.80;1.90;;;;;;;13.21;75.88;102182.69;5018494;28;20092;-45
2023/05/27 04:49:22;;;;;;;11.50;4.00;;;;;;;13.22;75.75;102184.31;5030447;28;20119;-45
2023/05/27 04:51:50;;;;;;;4.72;2.08;;;;;;;13.23;75.67;102175.66;5011880;28;20084;-45
2023/05/27 04:54:17;;;;;;;4.85;1.70;;;;;;;13.24;75.84;102171.72;5030778;28;20037;-45
2023/05/27 04:56:44;;;;;;;3.38;1.80;;;;;;;13.27;75.80;102175.81;5030833;28;20059;-45
2023/05/27 04:59:16;;;;;;;3.80;2.05;;;;;;;13.28;75.90;102177.44;5030947;28;20034;-46
2023/05/27 05:02:09;;;;;;;2.78;1.67;;;;;;;13.28;75.84;102174.66;5029821;28;20076;-44
2023/05/27 05:04:37;;;;;;;3.03;1.33;;;;;;;13.31;75.96;102171.22;5021970;28;20073;-44
2023/05/27 05:07:04;;;;;;;4.78;1.83;;;;;;;13.33;75.90;102172.53;5030392;28;20045;-44
2023/05/27 05:09:31;;;;;;;2.60;1.63;;;;;;;13.35;75.92;102173.00;5012908;28;20041;-44
2023/05/27 05:11:58;;;;;;;2.78;1.60;;;;;;;13.38;75.92;102177.09;5029730;28;20029;-47
2023/05/27 05:14:25;;;;;;;5.40;2.22;;;;;;;13.41;75.82;102176.44;5031058;28;20041;-45
2023/05/27 05:16:52;;;;;;;3.28;1.30;;;;;;;13.44;75.83;102178.56;5028991;28;20502;-51
2023/05/27 05:19:18;;;;;;;4.15;1.45;;;;;;;13.47;75.94;102172.34;5024495;28;20151;-45
2023/05/27 05:21:45;;;;;;;4.25;1.23;;;;;;;13.50;75.96;102171.69;5027888;28;20041;-45
2023/05/27 05:24:12;;;;;;;7.28;1.92;;;;;;;13.51;75.90;102170.53;5028758;28;20042;-45
2023/05/27 05:26:39;;;;;;;5.10;1.20;;;;;;;13.53;76.09;102173.00;5028995;28;20053;-45
2023/05/27 05:29:06;;;;;;;2.53;1.67;;;;;;;13.57;76.13;102169.22;5025141;28;20042;-45
2023/05/27 05:31:32;;;;;;;2.05;1.38;;;;;;;13.61;76.02;102170.19;5025818;28;20037;-45
2023/05/27 05:33:59;;;;;;;5.47;1.65;;;;;;;13.64;76.07;102174.25;5026900;28;20452;-45
2023/05/27 05:36:28;;;;;;;5.47;1.95;;;;;;;13.68;76.08;102164.94;5026750;28;20535;-49
2023/05/27 05:38:55;;;;;;;3.28;1.55;;;;;;;13.72;76.17;102165.91;5024511;28;20037;-44
2023/05/27 05:41:22;;;;;;;3.85;1.58;;;;;;;13.74;76.36;102163.59;5009228;28;20507;-50
2023/05/27 05:43:49;;;;;;;4.43;1.80;;;;;;;13.78;76.30;102170.16;5028494;28;20585;-45
2023/05/27 05:46:16;;;;;;;5.63;1.88;;;;;;;13.84;76.33;102163.25;5026739;28;20045;-45
2023/05/27 05:48:43;;;;;;;7.97;2.00;;;;;;;13.90;76.21;102173.03;5026115;28;20050;-48
2023/05/27 05:51:09;;;;;;;6.60;3.10;;;;;;;13.94;76.34;102174.03;5007891;28;20396;-45
2023/05/27 05:53:36;;;;;;;4.55;1.88;;;;;;;14.01;76.25;102171.53;5021655;28;20049;-45
2023/05/27 05:56:03;;;;;;;3.60;1.60;;;;;;;14.04;76.49;102172.81;5012077;28;20445;-51
2023/05/27 05:58:30;;;;;;;5.57;1.77;;;;;;;14.09;76.37;102169.84;5029485;28;20050;-45
2023/05/27 06:00:57;;;;;;;4.30;1.58;;;;;;;14.13;76.07;102170.00;5028213;28;20585;-45
2023/05/27 06:03:24;;;;;;;3.67;1.48;;;;;;;14.17;76.13;102168.19;5030109;28;20064;-45
2023/05/27 06:05:51;;;;;;;2.60;1.73;;;;;;;14.22;76.26;102173.56;5016462;28;20044;-44
2023/05/27 06:08:18;;;;;;;4.60;1.80;;;;;;;14.26;76.23;102160.59;5028880;28;20103;-45
2023/05/27 06:10:45;;;;;;;9.95;2.33;;;;;;;14.29;76.07;102157.16;5019793;28;20049;-46
2023/05/27 06:13:12;;;;;;;6.40;2.15;;;;;;;14.34;76.16;102159.78;5027436;28;20487;-45
2023/05/27 06:15:38;;;;;;;5.13;2.08;;;;;;;14.40;76.36;102164.00;5029423;28;20499;-45
2023/05/27 06:18:05;;;;;;;5.47;1.95;;;;;;;14.44;76.04;102159.38;5029089;28;20487;-45
2023/05/27 06:20:32;;;;;;;6.43;2.28;;;;;;;14.48;76.05;102154.78;5024108;28;20049;-45
2023/05/27 06:22:59;;;;;;;33.30;4.38;;;;;;;14.48;76.03;102160.34;5028536;28;20037;-48
2023/05/27 06:25:25;;;;;;;3.10;1.58;;;;;;;14.50;76.12;102155.25;5029365;28;20438;-45
2023/05/27 06:27:52;;;;;;;5.05;1.70;;;;;;;14.54;76.17;102154.22;5019981;28;20594;-48
2023/05/27 06:30:19;;;;;;;5.43;1.30;;;;;;;14.58;76.06;102148.81;5025929;28;20099;-47
2023/05/27 06:32:46;;;;;;;6.43;1.60;;;;;;;14.59;75.88;102156.81;5024939;28;20048;-48
2023/05/27 06:35:13;;;;;;;4.53;1.48;;;;;;;14.60;75.80;102152.06;5027670;28;20041;-45
2023/05/27 06:37:40;;;;;;;5.40;1.58;;;;;;;14.66;76.03;102153.50;5026724;28;20068;-45
2023/05/27 06:40:07;;;;;;;5.10;1.83;;;;;;;14.70;75.79;102157.25;5024364;28;20045;-45
2023/05/27 06:42:34;;;;;;;5.63;1.45;;;;;;;14.74;75.67;102160.19;5025851;28;20144;-47
2023/05/27 06:45:01;;;;;;;3.97;1.45;;;;;;;14.76;75.55;102161.47;5027150;28;20050;-45
2023/05/27 06:47:27;;;;;;;4.53;1.85;;;;;;;14.80;75.70;102162.41;5022631;28;20128;-50
2023/05/27 06:49:54;;;;;;;3.40;1.30;;;;;;;14.87;75.53;102154.34;5018743;28;20057;-45
2023/05/27 06:52:22;;;;;;;2.13;1.67;;;;;;;14.91;75.43;102141.31;5026388;28;20518;-45
2023/05/27 06:54:49;;;;;;;4.28;1.38;;;;;;;14.96;75.41;102143.91;5023548;28;20048;-46
2023/05/27 06:57:16;;;;;;;2.65;1.38;;;;;;;15.01;75.23;102140.13;5024375;28;20100;-47
2023/05/27 06:59:45;;;;;;;2.35;1.25;;;;;;;15.08;75.43;102132.00;5027598;28;20136;-45
2023/05/27 07:02:11;;;;;;;2.70;1.60;;;;;;;15.17;75.32;102127.97;5017379;28;20057;-45
2023/05/27 07:04:38;;;;;;;3.15;1.20;;;;;;;15.25;75.44;102123.47;5026433;28;20037;-45
2023/05/27 07:07:05;;;;;;;4.72;1.80;;;;;;;15.33;75.39;102127.34;5026336;28;20083;-45
2023/05/27 07:09:32;;;;;;;3.85;1.67;;;;;;;15.39;75.42;102129.56;5022625;28;20045;-45
2023/05/27 07:12:01;;;;;;;3.03;1.50;;;;;;;15.50;75.42;102125.22;5023427;28;20545;-45
2023/05/27 07:14:27;;;;;;;2.92;1.48;;;;;;;15.58;75.51;102115.94;5022771;28;20037;-45
2023/05/27 07:16:55;;;;;;;4.97;1.50;;;;;;;15.68;75.79;102114.66;5025926;28;20049;-45
2023/05/27 07:19:22;;;;;;;3.38;1.58;;;;;;;15.79;76.16;102124.22;5024548;28;20049;-45
2023/05/27 07:21:49;;;;;;;2.75;1.10;;;;;;;15.90;76.22;102122.59;5021249;28;20034;-45
2023/05/27 07:24:18;;;;;;;2.92;1.30;;;;;;;16.03;76.61;102123.41;5025695;28;20041;-45
2023/05/27 07:26:45;;;;;;;3.97;1.27;;;;;;;16.17;76.97;102126.69;5021491;28;20033;-45
2023/05/27 07:29:11;;;;;;;3.35;1.33;;;;;;;16.29;77.36;102130.28;5025732;28;20042;-45
2023/05/27 07:31:38;;;;;;;2.65;1.00;;;;;;;16.45;77.77;102122.81;5025708;28;20053;-45
2023/05/27 07:34:05;;;;;;;3.60;1.20;;;;;;;16.61;77.97;102120.13;5033516;28;20041;-52
2023/05/27 07:36:32;;;;;;;2.92;1.08;;;;;;;16.82;78.41;102125.56;5029035;28;20045;-45
2023/05/27 07:38:59;;;;;;;3.95;1.20;;;;;;;17.01;78.82;102131.34;5029952;28;20518;-46
2023/05/27 07:41:27;;;;;;;2.85;1.13;;;;;;;17.23;79.06;102130.78;5043128;28;20037;-45
2023/05/27 07:43:54;;;;;;;1.20;0.80;;;;;;;17.47;78.97;102130.63;5032186;28;20106;-53
2023/05/27 07:46:22;;;;;;;1.63;1.00;;;;;;;17.83;78.54;102128.81;5032176;28;20387;-46
2023/05/27 07:48:48;;;;;;;3.20;1.05;;;;;;;18.22;77.15;102128.63;5031173;28;20543;-45
2023/05/27 07:51:15;;;;;;;2.47;0.82;;;;;;;18.67;75.60;102130.91;5005570;28;20559;-45
2023/05/27 07:53:42;;;;;;;4.55;2.00;;;;;;;19.26;73.32;102130.56;5021500;28;20538;-46
2023/05/27 07:56:09;;;;;;;2.40;1.00;;;;;;;19.94;70.55;102125.03;5024869;28;20045;-46
2023/05/27 07:58:36;;;;;;;2.60;0.68;;;;;;;20.72;67.61;102131.09;5031589;28;20072;-49
2023/05/27 08:01:02;;;;;;;2.08;0.93;;;;;;;21.44;64.36;102134.44;5031727;28;20111;-43
2023/05/27 08:03:29;;;;;;;1.98;0.80;;;;;;;22.17;61.97;102128.72;5011686;28;20041;-43
2023/05/27 08:05:57;;;;;;;1.45;0.98;;;;;;;22.81;59.22;102134.81;5024191;28;20136;-44
2023/05/27 08:08:23;;;;;;;3.03;0.82;;;;;;;23.38;56.17;102136.69;5025067;28;20053;-44
2023/05/27 08:10:51;;;;;;;2.20;0.68;;;;;;;23.84;53.95;102136.81;5022080;28;20690;-48
2023/05/27 08:13:18;;;;;;;1.98;1.10;;;;;;;24.36;52.04;102134.41;5029044;28;20100;-47
2023/05/27 08:15:46;;;;;;;3.92;0.98;;;;;;;24.76;50.56;102131.88;5025393;28;20052;-45
2023/05/27 08:18:13;;;;;;;1.48;0.80;;;;;;;25.21;48.88;102130.13;5028820;28;20053;-45
2023/05/27 08:20:40;;;;;;;3.25;0.77;;;;;;;25.68;47.56;102130.72;5031557;28;20049;-49
2023/05/27 08:23:11;;;;;;;1.73;0.80;;;;;;;26.06;46.50;102134.44;5029042;28;20061;-44
2023/05/27 08:25:38;;;;;;;2.28;0.43;;;;;;;26.21;44.84;102124.63;5031623;28;20060;-45
2023/05/27 08:28:09;;;;;;;1.02;0.70;;;;;;;26.32;44.54;102136.69;5018188;28;20120;-46
2023/05/27 08:30:36;;;;;;;0.85;0.65;;;;;;;26.55;43.64;102128.34;5031210;28;20045;-44
2023/05/27 08:33:03;;;;;;;1.15;0.80;;;;;;;26.77;42.33;102135.44;5030129;28;20099;-47
2023/05/27 08:35:30;;;;;;;1.20;0.70;;;;;;;26.94;41.30;102128.75;5031743;28;20571;-44
2023/05/27 08:37:57;;;;;;;2.50;1.13;;;;;;;27.06;41.13;102124.53;5031033;28;20076;-44
2023/05/27 08:40:24;;;;;;;1.85;0.90;;;;;;;27.15;40.74;102131.31;5039221;28;20124;-51
2023/05/27 08:42:55;;;;;;;2.33;0.60;;;;;;;27.33;40.64;102121.72;5013880;28;20132;-46
2023/05/27 08:45:22;;;;;;;1.95;0.80;;;;;;;27.39;39.71;102128.56;5023978;28;20827;-44
2023/05/27 08:47:49;;;;;;;2.15;0.93;;;;;;;27.49;39.75;102127.63;5030598;28;20498;-45
2023/05/27 08:50:16;;;;;;;3.67;1.05;;;;;;;27.68;39.49;102127.75;5030599;28;20049;-46
2023/05/27 08:52:49;;;;;;;1.98;1.20;;;;;;;27.98;38.88;102129.72;5029767;28;20049;-44
2023/05/27 08:55:20;;;;;;;5.30;1.25;;;;;;;28.00;38.73;102124.41;5030820;28;20049;-45
2023/05/27 08:58:01;;;;;;;1.73;0.90;;;;;;;28.06;39.13;102125.56;5031302;28;20053;-45
2023/05/27 09:00:28;;;;;;;1.50;0.93;;;;;;;28.28;38.66;102121.06;5024577;28;20049;-45
2023/05/27 09:02:56;;;;;;;4.35;1.27;;;;;;;28.28;38.58;102118.22;5029387;28;20046;-44
2023/05/27 09:05:23;;;;;;;2.13;1.02;;;;;;;28.38;38.34;102114.38;5030678;28;20045;-44
2023/05/27 09:07:50;;;;;;;2.60;1.17;;;;;;;28.27;37.88;102116.63;5030656;28;20045;-45
2023/05/27 09:10:17;;;;;;;2.92;1.27;;;;;;;28.07;38.75;102121.44;5030546;28;20510;-45
2023/05/27 09:12:45;;;;;;;2.95;0.90;;;;;;;28.11;38.00;102122.22;5030028;28;20038;-45
2023/05/27 09:15:12;;;;;;;1.38;0.77;;;;;;;28.29;37.79;102108.47;5030311;28;20044;-44
2023/05/27 09:17:44;;;;;;;1.88;1.00;;;;;;;28.46;37.55;102115.06;5029394;28;20077;-45
2023/05/27 09:20:12;;;;;;;2.63;1.55;;;;;;;28.60;36.95;102109.09;5030125;28;20041;-44
2023/05/27 09:22:40;;;;;;;4.40;1.05;;;;;;;28.57;36.69;102120.56;5029894;28;20141;-44
2023/05/27 09:25:08;;;;;;;5.00;1.13;;;;;;;28.58;36.58;102110.75;5030207;28;20041;-44
2023/05/27 09:27:35;;;;;;;3.25;0.90;;;;;;;28.39;36.43;102113.16;5030275;28;20582;-45
2023/05/27 09:30:09;;;;;;;1.48;1.15;;;;;;;28.35;36.62;102109.56;5030005;28;20049;-47
2023/05/27 09:32:36;;;;;;;1.52;0.70;;;;;;;28.39;36.58;102116.00;5029459;28;20507;-44
2023/05/27 09:35:07;;;;;;;2.05;0.70;;;;;;;28.61;36.54;102112.75;5029518;28;20053;-45
2023/05/27 09:37:34;;;;;;;2.10;0.70;;;;;;;28.87;36.01;102103.28;5029996;28;20049;-44
2023/05/27 09:40:10;;;;;;;1.80;1.13;;;;;;;28.83;36.26;102105.41;5035030;28;20099;-44
2023/05/27 09:42:44;;;;;;;1.75;0.95;;;;;;;28.90;36.55;102102.41;5033586;28;20057;-46
2023/05/27 09:45:16;;;;;;;1.58;0.90;;;;;;;28.93;35.93;102105.19;5020202;28;20068;-45
2023/05/27 09:47:48;;;;;;;5.05;1.00;;;;;;;28.75;36.03;102103.94;5028477;28;20057;-45
2023/05/27 09:50:16;;;;;;;3.17;1.02;;;;;;;28.55;36.17;102098.19;5030243;28;20049;-45
2023/05/27 09:52:44;;;;;;;3.60;0.77;;;;;;;28.47;36.15;102101.59;5029436;28;20128;-45
2023/05/27 09:55:30;;;;;;;2.90;1.10;;;;;;;28.50;35.85;102100.75;5029882;28;20060;-44
2023/05/27 09:57:58;;;;;;;1.20;0.80;;;;;;;28.41;36.02;102094.81;5028976;28;20556;-44
2023/05/27 10:00:27;;;;;;;1.42;0.60;;;;;;;28.57;35.45;102092.84;5012468;28;20140;-45
2023/05/27 10:02:57;;;;;;;4.63;1.00;;;;;;;28.61;35.34;102090.75;5027613;28;20120;-44
2023/05/27 10:05:27;;;;;;;1.60;1.00;;;;;;;28.57;35.29;102097.78;5012124;28;20173;-48
2023/05/27 10:07:54;;;;;;;2.22;0.85;;;;;;;28.65;35.54;102102.09;5029825;28;20080;-47
2023/05/27 10:10:42;;;;;;;2.33;1.33;;;;;;;28.60;35.41;102094.84;5029444;28;20128;-47
2023/05/27 10:13:09;;;;;;;3.75;0.75;;;;;;;28.61;35.55;102105.00;5028477;28;20989;-44
2023/05/27 10:15:36;;;;;;;2.22;0.73;;;;;;;28.58;35.16;102100.19;5017053;28;20091;-47
2023/05/27 10:18:06;;;;;;;1.23;0.68;;;;;;;28.57;35.11;102104.25;5029318;28;20045;-44
2023/05/27 10:20:42;;;;;;;2.35;0.70;;;;;;;28.37;35.34;102097.72;5029135;28;20111;-45
2023/05/27 10:23:18;;;;;;;1.67;0.80;;;;;;;28.07;35.52;102097.84;5027650;28;20057;-44
2023/05/27 10:26:07;;;;;;;3.22;0.95;;;;;;;28.00;35.55;102093.06;5023557;28;20038;-46
2023/05/27 10:28:36;;;;;;;2.35;0.77;;;;;;;27.83;35.56;102093.38;5028776;28;20030;-43
2023/05/27 10:31:05;;;;;;;2.90;0.95;;;;;;;27.62;36.26;102086.78;5029225;28;20399;-44
2023/05/27 10:33:42;;;;;;;2.05;0.98;;;;;;;27.19;36.55;102086.56;5027610;28;20472;-44
2023/05/27 10:36:17;;;;;;;2.40;0.90;;;;;;;26.22;37.75;102075.13;5030118;28;20065;-44
2023/05/27 10:39:15;;;;;;;2.38;0.93;;;;;;;25.22;39.57;102079.91;5011584;28;20053;-44
2023/05/27 10:41:52;;;;;;;1.50;0.90;;;;;;;24.56;40.73;102073.28;5038772;28;20446;-46
2023/05/27 10:44:36;;;;;;;1.90;0.90;;;;;;;24.06;41.56;102056.38;5027018;28;20053;-47
2023/05/27 10:47:11;;;;;;;4.13;1.52;;;;;;;23.75;43.15;102062.06;5025845;28;20045;-44
2023/05/27 10:49:40;;;;;;;4.05;1.33;;;;;;;23.59;43.87;102063.25;5028119;28;20132;-43
2023/05/27 10:52:15;;;;;;;1.85;0.80;;;;;;;23.40;44.90;102060.81;5027041;28;20041;-47
2023/05/27 10:54:47;;;;;;;4.28;1.05;;;;;;;23.16;44.91;102055.06;5028301;28;20045;-44
2023/05/27 10:57:14;;;;;;;2.28;0.80;;;;;;;22.92;45.93;102050.97;5014636;28;20045;-43
2023/05/27 10:59:52;;;;;;;1.50;0.80;;;;;;;22.65;46.18;102050.44;5022190;28;20049;-46
2023/05/27 11:02:22;;;;;;;1.70;1.27;;;;;;;22.37;46.46;102044.63;5020600;28;20038;-43
2023/05/27 11:04:50;;;;;;;2.58;1.30;;;;;;;22.26;47.50;102052.22;5017867;28;20479;-43
2023/05/27 11:07:20;;;;;;;3.17;1.23;;;;;;;22.12;47.64;102049.28;5020405;28;20451;-44
2023/05/27 11:09:52;;;;;;;3.15;0.95;;;;;;;21.95;47.94;102047.97;5021577;28;20049;-44
2023/05/27 11:12:23;;;;;;;;;;;;;;;21.79;47.67;102038.94;5022348;28;20045;-44
2023/05/27 11:14:52;;;;;;;2.75;0.93;;;;;;;21.71;48.24;102042.94;5028347;28;19924;-44
2023/05/27 11:17:21;;;;;;;2.45;1.55;;;;;;;21.67;48.60;102042.06;5024132;28;20037;-45
2023/05/27 11:19:49;;;;;;;3.13;1.45;;;;;;;21.66;48.73;102038.44;5018627;28;20052;-42
2023/05/27 11:22:17;;;;;;;1.65;0.90;;;;;;;21.73;48.61;102030.06;5025659;28;20045;-45
2023/05/27 11:24:55;;;;;;;3.38;1.15;;;;;;;21.80;48.96;102026.47;5025850;28;20509;-44
2023/05/27 11:27:22;;;;;;;1.92;0.82;;;;;;;21.82;48.80;102024.06;5017569;28;20046;-43
2023/05/27 11:29:51;;;;;;;3.53;0.95;;;;;;;21.90;48.58;102028.59;5019101;28;20495;-44